createdAt,value
2022-10-18T00:01:08.102Z,101993.84
2022-10-18T00:06:09.401Z,101989.23
2022-10-18T00:08:39.045Z,101990.14
2022-10-18T00:11:07.933Z,101991.40
2022-10-18T00:13:36.213Z,101985.45
2022-10-18T00:16:09.961Z,101979.39
2022-10-18T00:18:37.995Z,101980.41
2022-10-18T00:21:11.806Z,101978.91
2022-10-18T00:23:40.288Z,101969.58
2022-10-18T00:26:15.421Z,101971.88
2022-10-18T00:28:44.259Z,101976.73
2022-10-18T00:31:16.982Z,101972.27
2022-10-18T00:33:47.173Z,101969.94
2022-10-18T00:36:15.969Z,101971.71
2022-10-18T00:38:44.910Z,101974.31
2022-10-18T00:41:17.010Z,101976.51
2022-10-18T00:44:26.700Z,101981.00
2022-10-18T00:47:05.090Z,101989.68
2022-10-18T00:49:37.570Z,101993.50
2022-10-18T00:52:35.750Z,101999.73
2022-10-18T00:55:05.979Z,102014.64
2022-10-18T00:57:34.424Z,102025.98
2022-10-18T01:00:04.335Z,102023.09
2022-10-18T01:02:32.901Z,102026.00
2022-10-18T01:05:01.049Z,102024.21
2022-10-18T01:07:57.023Z,102019.45
2022-10-18T01:10:49.845Z,102013.95
2022-10-18T01:13:39.564Z,102003.91
2022-10-18T01:16:31.254Z,102004.95
2022-10-18T01:19:27.305Z,102014.83
2022-10-18T01:22:08.165Z,102020.72
2022-10-18T01:24:52.854Z,102022.35
2022-10-18T01:27:36.246Z,102017.91
2022-10-18T01:30:15.267Z,102012.88
2022-10-18T01:32:49.086Z,102009.34
2022-10-18T01:35:33.032Z,102011.67
2022-10-18T01:38:06.925Z,102013.05
2022-10-18T01:40:37.042Z,102007.39
2022-10-18T01:45:35.253Z,102000.84
2022-10-18T01:48:03.934Z,102006.00
2022-10-18T01:50:34.202Z,101996.11
2022-10-18T01:53:02.552Z,101989.38
2022-10-18T01:55:43.548Z,101996.46
2022-10-18T01:58:40.416Z,101997.36
2022-10-18T02:01:43.735Z,101992.02
2022-10-18T02:04:33.799Z,101995.57
2022-10-18T02:07:55.448Z,102002.28
2022-10-18T02:11:00.005Z,101991.52
2022-10-18T02:13:34.857Z,101987.56
2022-10-18T02:16:09.978Z,101994.60
2022-10-18T02:18:42.551Z,101990.88
2022-10-18T02:21:15.948Z,101982.15
2022-10-18T02:23:46.274Z,101991.11
2022-10-18T02:26:16.107Z,101993.23
2022-10-18T02:28:45.908Z,101978.98
2022-10-18T02:31:26.467Z,101977.71
2022-10-18T02:33:58.984Z,101977.46
2022-10-18T02:36:39.089Z,101960.06
2022-10-18T02:39:14.444Z,101950.85
2022-10-18T02:41:43.025Z,101952.46
2022-10-18T02:44:11.510Z,101948.44
2022-10-18T02:46:40.613Z,101943.25
2022-10-18T02:49:08.784Z,101949.89
2022-10-18T02:51:36.728Z,101951.50
2022-10-18T02:54:05.550Z,101950.36
2022-10-18T02:56:33.631Z,101946.58
2022-10-18T02:59:01.907Z,101943.58
2022-10-18T03:01:29.919Z,101949.09
2022-10-18T03:03:57.955Z,101941.33
2022-10-18T03:06:26.047Z,101934.84
2022-10-18T03:08:54.355Z,101943.34
2022-10-18T03:11:22.599Z,101933.70
2022-10-18T03:13:50.467Z,101921.66
2022-10-18T03:16:18.953Z,101922.07
2022-10-18T03:18:46.768Z,101924.02
2022-10-18T03:21:14.798Z,101924.18
2022-10-18T03:23:42.787Z,101920.39
2022-10-18T03:26:10.849Z,101916.58
2022-10-18T03:28:38.888Z,101915.52
2022-10-18T03:31:07.069Z,101913.33
2022-10-18T03:33:35.382Z,101905.65
2022-10-18T03:36:03.353Z,101913.48
2022-10-18T03:38:31.848Z,101907.36
2022-10-18T03:40:59.817Z,101907.27
2022-10-18T03:43:27.991Z,101910.16
2022-10-18T03:45:56.309Z,101912.02
2022-10-18T03:48:24.294Z,101914.46
2022-10-18T03:50:52.222Z,101908.80
2022-10-18T03:53:20.295Z,101913.65
2022-10-18T03:55:52.871Z,101918.27
2022-10-18T03:58:21.584Z,101915.70
2022-10-18T04:00:51.484Z,101910.75
2022-10-18T04:03:21.198Z,101902.27
2022-10-18T04:05:49.682Z,101899.66
2022-10-18T04:08:18.575Z,101906.05
2022-10-18T04:10:46.667Z,101914.45
2022-10-18T04:13:14.876Z,101915.18
2022-10-18T04:15:43.454Z,101919.54
2022-10-18T04:18:11.389Z,101919.94
2022-10-18T04:20:39.387Z,101913.48
2022-10-18T04:23:07.236Z,101902.33
2022-10-18T04:25:35.289Z,101897.96
2022-10-18T04:28:03.387Z,101903.20
2022-10-18T04:30:31.307Z,101908.70
2022-10-18T04:32:59.543Z,101913.38
2022-10-18T04:35:27.822Z,101906.44
2022-10-18T04:37:55.894Z,101905.15
2022-10-18T04:40:23.971Z,101907.58
2022-10-18T04:42:51.947Z,101899.16
2022-10-18T04:45:19.921Z,101896.34
2022-10-18T04:47:47.901Z,101894.79
2022-10-18T04:50:15.898Z,101895.67
2022-10-18T04:52:44.579Z,101896.58
2022-10-18T04:55:12.433Z,101902.73
2022-10-18T04:57:40.709Z,101902.70
2022-10-18T05:00:09.144Z,101901.41
2022-10-18T05:02:37.376Z,101901.98
2022-10-18T05:05:08.114Z,101907.71
2022-10-18T05:07:38.435Z,101906.59
2022-10-18T05:10:07.843Z,101917.98
2022-10-18T05:12:36.121Z,101923.52
2022-10-18T05:15:04.816Z,101918.92
2022-10-18T05:17:32.858Z,101928.30
2022-10-18T05:20:00.926Z,101939.45
2022-10-18T05:22:29.389Z,101941.05
2022-10-18T05:24:57.935Z,101941.45
2022-10-18T05:27:25.833Z,101934.89
2022-10-18T05:29:53.643Z,101928.67
2022-10-18T05:32:22.029Z,101928.83
2022-10-18T05:34:50.350Z,101941.44
2022-10-18T05:37:18.454Z,101934.80
2022-10-18T05:39:46.401Z,101922.36
2022-10-18T05:42:14.374Z,101913.88
2022-10-18T05:44:42.886Z,101920.75
2022-10-18T05:47:11.134Z,101934.02
2022-10-18T05:49:39.191Z,101945.00
2022-10-18T05:52:07.064Z,101943.53
2022-10-18T05:54:35.114Z,101948.06
2022-10-18T05:57:02.990Z,101948.71
2022-10-18T05:59:30.952Z,101942.02
2022-10-18T06:01:59.142Z,101939.75
2022-10-18T06:04:27.150Z,101934.98
2022-10-18T06:06:55.261Z,101936.10
2022-10-18T06:09:23.426Z,101945.08
2022-10-18T06:11:51.378Z,101951.54
2022-10-18T06:14:19.252Z,101952.91
2022-10-18T06:16:47.224Z,101955.64
2022-10-18T06:19:15.613Z,101950.38
2022-10-18T06:21:44.555Z,101941.15
2022-10-18T06:24:12.510Z,101940.58
2022-10-18T06:26:40.449Z,101944.17
2022-10-18T06:29:08.527Z,101943.88
2022-10-18T06:31:37.520Z,101949.39
2022-10-18T06:34:05.682Z,101952.35
2022-10-18T06:36:33.676Z,101958.23
2022-10-18T06:39:01.641Z,101966.59
2022-10-18T06:41:29.624Z,101955.66
2022-10-18T06:43:57.597Z,101954.20
2022-10-18T06:46:26.493Z,101962.30
2022-10-18T06:48:54.677Z,101961.91
2022-10-18T06:51:22.852Z,101967.35
2022-10-18T06:54:05.870Z,101972.70
2022-10-18T06:56:39.396Z,101963.76
2022-10-18T06:59:07.443Z,101962.96
2022-10-18T07:01:35.679Z,101965.34
2022-10-18T07:04:04.002Z,101973.19
2022-10-18T07:06:32.399Z,101977.96
2022-10-18T07:09:00.264Z,101965.27
2022-10-18T07:11:28.331Z,101958.70
2022-10-18T07:14:00.600Z,101975.91
2022-10-18T07:16:29.290Z,101974.09
2022-10-18T07:18:57.571Z,101968.92
2022-10-18T07:21:26.568Z,101977.24
2022-10-18T07:23:56.941Z,101981.13
2022-10-18T07:26:28.359Z,101986.55
2022-10-18T07:29:04.764Z,102003.30
2022-10-18T07:31:35.774Z,102002.21
2022-10-18T07:34:05.353Z,101997.27
2022-10-18T07:36:34.162Z,102001.73
2022-10-18T07:39:02.116Z,102016.69
2022-10-18T07:41:30.313Z,102024.45
2022-10-18T07:43:58.193Z,102028.41
2022-10-18T07:46:26.508Z,102031.98
2022-10-18T07:48:55.321Z,102039.27
2022-10-18T07:51:23.714Z,102040.70
2022-10-18T07:53:52.083Z,102047.06
2022-10-18T07:56:23.568Z,102050.05
2022-10-18T07:58:54.001Z,102059.92
2022-10-18T08:01:23.665Z,102065.91
2022-10-18T08:03:52.701Z,102070.95
2022-10-18T08:06:22.827Z,102078.11
2022-10-18T08:08:50.793Z,102084.09
2022-10-18T08:11:22.227Z,102088.41
2022-10-18T08:13:51.674Z,102098.84
2022-10-18T08:16:22.903Z,102106.01
2022-10-18T08:18:51.534Z,102107.30
2022-10-18T08:21:20.929Z,102113.79
2022-10-18T08:23:49.196Z,102118.71
2022-10-18T08:26:20.048Z,102116.02
2022-10-18T08:28:58.171Z,102114.16
2022-10-18T08:31:37.867Z,102121.73
2022-10-18T08:34:05.846Z,102123.36
2022-10-18T08:36:33.795Z,102118.62
2022-10-18T08:39:01.710Z,102112.45
2022-10-18T08:41:55.765Z,102109.73
2022-10-18T08:44:25.433Z,102115.92
2022-10-18T08:47:07.127Z,102124.72
2022-10-18T08:49:47.743Z,102123.27
2022-10-18T08:52:34.739Z,102117.63
2022-10-18T08:55:09.162Z,102119.52
2022-10-18T08:57:37.034Z,102122.05
2022-10-18T09:00:18.667Z,102128.97
2022-10-18T09:03:05.368Z,102131.75
2022-10-18T09:05:45.492Z,102139.79
2022-10-18T09:08:54.869Z,102142.28
2022-10-18T09:11:46.905Z,102142.17
2022-10-18T09:14:23.842Z,102138.70
2022-10-18T09:16:55.014Z,102156.56
2022-10-18T09:19:41.532Z,102148.22
2022-10-18T09:22:21.081Z,102138.35
2022-10-18T09:24:57.183Z,102146.21
2022-10-18T09:27:42.194Z,102154.48
2022-10-18T09:30:25.522Z,102142.37
2022-10-18T09:33:05.464Z,102143.64
2022-10-18T09:36:05.083Z,102145.27
2022-10-18T09:38:41.359Z,102137.85
2022-10-18T09:41:20.687Z,102148.11
2022-10-18T09:43:59.825Z,102139.35
2022-10-18T09:46:39.197Z,102143.59
2022-10-18T09:49:19.068Z,102140.30
2022-10-18T09:51:49.277Z,102143.50
2022-10-18T09:54:23.592Z,102140.39
2022-10-18T09:57:02.424Z,102134.77
2022-10-18T09:59:50.874Z,102140.08
2022-10-18T10:02:21.912Z,102134.89
2022-10-18T10:04:51.134Z,102133.95
2022-10-18T10:07:21.921Z,102128.34
2022-10-18T10:10:14.620Z,102131.56
2022-10-18T10:12:42.901Z,102132.77
2022-10-18T10:15:19.344Z,102137.10
2022-10-18T10:18:02.416Z,102139.08
2022-10-18T10:20:37.432Z,102135.92
2022-10-18T10:23:08.931Z,102134.01
2022-10-18T10:25:38.235Z,102129.48
2022-10-18T10:28:20.605Z,102128.70
2022-10-18T10:30:48.616Z,102128.73
2022-10-18T10:33:57.691Z,102122.89
2022-10-18T10:36:25.645Z,102125.92
2022-10-18T10:39:04.766Z,102123.53
2022-10-18T10:41:33.613Z,102118.56
2022-10-18T10:44:05.015Z,102123.39
2022-10-18T10:46:36.898Z,102120.53
2022-10-18T10:49:35.062Z,102118.77
2022-10-18T10:52:08.849Z,102116.64
2022-10-18T10:54:52.492Z,102116.31
2022-10-18T10:57:26.196Z,102109.46
2022-10-18T10:59:56.360Z,102111.67
2022-10-18T11:02:33.512Z,102109.05
2022-10-18T11:05:25.007Z,102099.50
2022-10-18T11:07:57.013Z,102103.38
2022-10-18T11:10:30.901Z,102101.66
2022-10-18T11:13:03.629Z,102103.80
2022-10-18T11:15:45.229Z,102106.30
2022-10-18T11:18:27.819Z,102101.80
2022-10-18T11:20:58.454Z,102098.21
2022-10-18T11:23:33.179Z,102098.14
2022-10-18T11:26:32.409Z,102096.66
2022-10-18T11:29:30.079Z,102093.63
2022-10-18T11:32:26.780Z,102094.11
2022-10-18T11:35:16.655Z,102089.84
2022-10-18T11:37:47.529Z,102088.17
2022-10-18T11:40:27.471Z,102080.48
2022-10-18T11:43:50.540Z,102077.20
2022-10-18T11:46:22.909Z,102072.61
2022-10-18T11:49:02.920Z,102071.46
2022-10-18T11:52:07.984Z,102067.17
2022-10-18T11:54:43.845Z,102064.27
2022-10-18T11:57:37.743Z,102063.08
2022-10-18T12:00:23.751Z,102065.27
2022-10-18T12:03:18.680Z,102058.38
2022-10-18T12:05:48.752Z,102054.65
2022-10-18T12:08:23.882Z,102055.45
2022-10-18T12:11:10.225Z,102052.77
2022-10-18T12:13:55.447Z,102043.89
2022-10-18T12:16:49.578Z,102043.75
2022-10-18T12:19:28.872Z,102038.98
2022-10-18T12:22:02.678Z,102033.55
2022-10-18T12:24:33.116Z,102031.05
2022-10-18T12:27:02.304Z,102027.60
2022-10-18T12:29:40.259Z,102020.75
2022-10-18T12:32:13.163Z,102016.59
2022-10-18T12:34:49.770Z,102014.98
2022-10-18T12:37:20.635Z,102013.17
2022-10-18T12:40:11.423Z,102011.45
2022-10-18T12:42:48.100Z,102010.14
2022-10-18T12:45:42.592Z,102006.21
2022-10-18T12:48:29.040Z,101999.14
2022-10-18T12:51:17.081Z,101996.55
2022-10-18T12:53:49.182Z,101990.77
2022-10-18T12:56:39.721Z,101990.05
2022-10-18T12:59:16.874Z,101986.36
2022-10-18T13:01:50.758Z,101984.69
2022-10-18T13:04:28.117Z,101979.98
2022-10-18T13:06:59.659Z,101980.65
2022-10-18T13:09:28.763Z,101980.42
2022-10-18T13:12:16.545Z,101974.39
2022-10-18T13:15:13.376Z,101971.29
2022-10-18T13:17:55.217Z,101967.26
2022-10-18T13:20:40.861Z,101963.57
2022-10-18T13:23:09.203Z,101954.59
2022-10-18T13:25:58.639Z,101954.58
2022-10-18T13:28:26.898Z,101951.89
2022-10-18T13:31:09.880Z,101952.09
2022-10-18T13:33:40.767Z,101949.77
2022-10-18T13:36:22.663Z,101944.14
2022-10-18T13:38:54.141Z,101943.81
2022-10-18T13:41:29.180Z,101942.08
2022-10-18T13:44:02.648Z,101942.66
2022-10-18T13:46:33.488Z,101938.77
2022-10-18T13:49:40.056Z,101940.34
2022-10-18T13:52:54.750Z,101932.70
2022-10-18T13:55:45.363Z,101928.28
2022-10-18T13:58:32.094Z,101929.85
2022-10-18T14:01:03.663Z,101928.64
2022-10-18T14:03:58.099Z,101927.79
2022-10-18T14:06:36.325Z,101923.79
2022-10-18T14:12:21.782Z,101918.14
2022-10-18T14:15:03.533Z,101915.36
2022-10-18T14:17:34.532Z,101918.19
2022-10-18T14:20:20.738Z,101918.92
2022-10-18T14:23:03.194Z,101917.25
2022-10-18T14:25:35.157Z,101913.01
2022-10-18T14:28:27.320Z,101911.70
2022-10-18T14:31:05.553Z,101911.63
2022-10-18T14:33:44.319Z,101908.70
2022-10-18T14:36:15.669Z,101901.49
2022-10-18T14:39:00.864Z,101903.08
2022-10-18T14:41:30.955Z,101905.75
2022-10-18T14:44:32.169Z,101901.27
2022-10-18T14:47:22.527Z,101893.25
2022-10-18T14:49:51.601Z,101895.00
2022-10-18T14:52:26.089Z,101891.37
2022-10-18T14:54:56.361Z,101887.31
2022-10-18T14:57:42.453Z,101886.52
2022-10-18T15:02:51.858Z,101882.17
2022-10-18T15:05:23.722Z,101880.80
2022-10-18T15:07:53.117Z,101877.39
2022-10-18T15:10:33.688Z,101883.87
2022-10-18T15:13:09.736Z,101877.38
2022-10-18T15:15:39.370Z,101874.80
2022-10-18T15:18:08.207Z,101875.91
2022-10-18T15:20:37.812Z,101873.24
2022-10-18T15:23:29.051Z,101873.05
2022-10-18T15:26:04.622Z,101874.64
2022-10-18T15:28:34.424Z,101869.73
2022-10-18T15:31:03.334Z,101869.48
2022-10-18T15:33:33.054Z,101877.46
2022-10-18T15:36:17.963Z,101877.59
2022-10-18T15:38:49.108Z,101875.20
2022-10-18T15:41:57.986Z,101874.00
2022-10-18T15:44:34.697Z,101867.18
2022-10-18T15:47:11.940Z,101862.20
2022-10-18T15:49:46.473Z,101859.35
2022-10-18T15:52:38.209Z,101856.84
2022-10-18T15:55:32.068Z,101848.67
2022-10-18T15:58:11.306Z,101850.97
2022-10-18T16:00:39.293Z,101847.52
2022-10-18T16:03:08.966Z,101843.36
2022-10-18T16:05:38.232Z,101841.48
2022-10-18T16:08:06.383Z,101838.13
2022-10-18T16:10:34.366Z,101836.39
2022-10-18T16:13:02.524Z,101839.10
2022-10-18T16:15:30.583Z,101845.33
2022-10-18T16:17:58.654Z,101845.79
2022-10-18T16:20:26.609Z,101839.17
2022-10-18T16:22:54.512Z,101836.33
2022-10-18T16:25:22.341Z,101829.89
2022-10-18T16:27:50.590Z,101829.58
2022-10-18T16:30:21.034Z,101830.70
2022-10-18T16:32:48.964Z,101840.05
2022-10-18T16:35:16.979Z,101841.99
2022-10-18T16:37:44.772Z,101839.33
2022-10-18T16:40:25.214Z,101838.48
2022-10-18T16:42:53.057Z,101835.19
2022-10-18T16:45:21.053Z,101836.02
2022-10-18T16:47:48.983Z,101833.27
2022-10-18T16:50:19.803Z,101833.29
2022-10-18T16:52:47.803Z,101835.87
2022-10-18T16:55:15.977Z,101840.89
2022-10-18T16:57:43.897Z,101841.38
2022-10-18T17:00:22.940Z,101840.40
2022-10-18T17:02:51.900Z,101843.30
2022-10-18T17:05:20.580Z,101844.94
2022-10-18T17:07:49.271Z,101840.66
2022-10-18T17:10:21.433Z,101837.82
2022-10-18T17:12:49.348Z,101834.60
2022-10-18T17:15:18.477Z,101834.36
2022-10-18T17:17:47.385Z,101836.38
2022-10-18T17:20:24.427Z,101836.30
2022-10-18T17:22:54.497Z,101836.86
2022-10-18T17:25:22.463Z,101837.92
2022-10-18T17:27:50.484Z,101835.65
2022-10-18T17:30:18.592Z,101839.77
2022-10-18T17:32:46.444Z,101843.49
2022-10-18T17:35:14.369Z,101850.84
2022-10-18T17:37:45.316Z,101861.92
2022-10-18T17:40:14.056Z,101862.96
2022-10-18T17:42:42.533Z,101856.90
2022-10-18T17:45:10.657Z,101853.27
2022-10-18T17:47:38.523Z,101855.13
2022-10-18T17:50:06.919Z,101858.84
2022-10-18T17:52:34.833Z,101861.34
2022-10-18T17:55:02.739Z,101863.02
2022-10-18T17:57:30.933Z,101864.86
2022-10-18T17:59:59.052Z,101865.20
2022-10-18T18:02:26.886Z,101866.31
2022-10-18T18:04:55.127Z,101867.77
2022-10-18T18:07:23.000Z,101873.52
2022-10-18T18:09:50.897Z,101877.89
2022-10-18T18:12:18.915Z,101880.79
2022-10-18T18:14:47.254Z,101884.89
2022-10-18T18:17:17.017Z,101890.80
2022-10-18T18:19:49.497Z,101897.12
2022-10-18T18:22:17.446Z,101899.40
2022-10-18T18:24:45.401Z,101901.50
2022-10-18T18:27:13.325Z,101902.62
2022-10-18T18:29:41.157Z,101905.92
2022-10-18T18:32:09.390Z,101908.91
2022-10-18T18:34:37.398Z,101908.76
2022-10-18T18:37:05.271Z,101906.83
2022-10-18T18:39:33.186Z,101902.39
2022-10-18T18:42:01.873Z,101898.19
2022-10-18T18:44:29.979Z,101908.45
2022-10-18T18:46:58.280Z,101919.99
2022-10-18T18:49:26.447Z,101930.34
2022-10-18T18:51:54.607Z,101929.45
2022-10-18T18:54:22.718Z,101924.38
2022-10-18T18:56:51.452Z,101923.23
2022-10-18T18:59:19.242Z,101922.33
2022-10-18T19:01:47.580Z,101922.81
2022-10-18T19:04:20.453Z,101926.70
2022-10-18T19:06:48.290Z,101921.20
2022-10-18T19:09:18.078Z,101919.67
2022-10-18T19:11:48.238Z,101918.71
2022-10-18T19:14:16.618Z,101923.98
2022-10-18T19:16:53.745Z,101929.15
2022-10-18T19:19:24.208Z,101938.04
2022-10-18T19:21:54.953Z,101947.17
2022-10-18T19:24:24.730Z,101958.09
2022-10-18T19:26:55.591Z,101967.55
2022-10-18T19:29:25.007Z,101965.77
2022-10-18T19:31:55.825Z,101957.94
2022-10-18T19:34:25.750Z,101947.98
2022-10-18T19:36:54.278Z,101951.80
2022-10-18T19:39:26.605Z,101973.85
2022-10-18T19:41:56.422Z,101992.53
2022-10-18T19:44:28.235Z,101994.65
2022-10-18T19:46:56.260Z,101997.05
2022-10-18T19:49:24.192Z,101998.27
2022-10-18T19:51:52.616Z,102010.89
2022-10-18T19:54:21.101Z,102007.09
2022-10-18T19:56:49.379Z,101989.39
2022-10-18T19:59:17.766Z,101994.17
2022-10-18T20:01:46.191Z,102014.69
2022-10-18T20:04:15.079Z,102011.38
2022-10-18T20:06:43.371Z,101997.79
2022-10-18T20:09:16.097Z,101995.15
2022-10-18T20:11:47.706Z,101994.48
2022-10-18T20:14:15.833Z,101985.63
2022-10-18T20:16:43.710Z,101987.23
2022-10-18T20:19:11.649Z,101988.50
2022-10-18T20:21:39.524Z,101977.18
2022-10-18T20:24:08.040Z,101978.87
2022-10-18T20:26:36.525Z,101973.21
2022-10-18T20:29:04.982Z,101963.42
2022-10-18T20:31:34.596Z,101964.98
2022-10-18T20:34:05.259Z,101967.54
2022-10-18T20:36:34.008Z,101973.12
2022-10-18T20:39:02.230Z,101974.58
2022-10-18T20:41:33.372Z,101974.27
2022-10-18T20:44:04.530Z,101974.77
2022-10-18T20:46:35.524Z,101972.65
2022-10-18T20:49:06.010Z,101975.15
2022-10-18T20:51:35.296Z,101982.91
2022-10-18T20:56:38.718Z,101999.98
2022-10-18T20:59:07.426Z,101996.34
2022-10-18T21:01:37.148Z,101987.12
2022-10-18T21:04:08.011Z,101987.95
2022-10-18T21:06:38.684Z,101979.37
2022-10-18T21:09:18.279Z,101980.97
2022-10-18T21:11:49.864Z,101977.81
2022-10-18T21:14:20.894Z,101959.05
2022-10-18T21:16:51.207Z,101959.45
2022-10-18T21:19:25.278Z,101960.66
2022-10-18T21:21:56.986Z,101965.02
2022-10-18T21:24:25.887Z,101964.05
2022-10-18T21:26:54.598Z,101963.64
2022-10-18T21:29:23.603Z,101956.28
2022-10-18T21:31:55.212Z,101949.02
2022-10-18T21:34:23.157Z,101954.77
2022-10-18T21:36:51.326Z,101953.64
2022-10-18T21:39:22.116Z,101950.64
2022-10-18T21:41:50.970Z,101950.56
2022-10-18T21:44:18.841Z,101948.63
2022-10-18T21:46:47.069Z,101943.78
2022-10-18T21:49:15.562Z,101942.31
2022-10-18T21:51:43.793Z,101943.36
2022-10-18T21:54:14.380Z,101947.16
2022-10-18T21:56:42.665Z,101949.42
2022-10-18T21:59:14.345Z,101951.94
2022-10-18T22:01:42.328Z,101952.01
2022-10-18T22:04:22.520Z,101953.71
2022-10-18T22:06:50.941Z,101949.42
2022-10-18T22:09:19.677Z,101948.22
2022-10-18T22:11:51.545Z,101941.42
2022-10-18T22:14:20.160Z,101939.65
2022-10-18T22:16:48.349Z,101934.38
2022-10-18T22:19:16.327Z,101931.31
2022-10-18T22:21:44.319Z,101930.91
2022-10-18T22:24:12.154Z,101930.09
2022-10-18T22:26:42.477Z,101925.89
2022-10-18T22:29:14.643Z,101927.59
2022-10-18T22:31:46.496Z,101932.83
2022-10-18T22:34:20.520Z,101925.98
2022-10-18T22:36:48.797Z,101920.97
2022-10-18T22:39:16.784Z,101916.52
2022-10-18T22:41:45.386Z,101916.65
2022-10-18T22:44:15.397Z,101913.42
2022-10-18T22:46:43.385Z,101911.48
2022-10-18T22:49:11.833Z,101908.36
2022-10-18T22:51:40.589Z,101906.80
2022-10-18T22:54:09.209Z,101902.83
2022-10-18T22:56:37.111Z,101896.13
2022-10-18T22:59:05.125Z,101890.80
2022-10-18T23:01:33.038Z,101888.36
2022-10-18T23:04:01.691Z,101886.49
2022-10-18T23:06:35.814Z,101884.05
2022-10-18T23:09:07.245Z,101879.59
2022-10-18T23:11:36.355Z,101881.05
2022-10-18T23:14:06.360Z,101885.66
2022-10-18T23:16:35.228Z,101888.63
2022-10-18T23:19:03.813Z,101890.08
2022-10-18T23:21:34.199Z,101886.14
2022-10-18T23:24:02.069Z,101880.95
2022-10-18T23:26:30.033Z,101869.58
2022-10-18T23:28:57.964Z,101857.20
2022-10-18T23:31:29.223Z,101850.23
2022-10-18T23:33:59.505Z,101844.50
2022-10-18T23:36:27.502Z,101843.06
2022-10-18T23:38:56.201Z,101848.74
2022-10-18T23:41:24.580Z,101848.60
2022-10-18T23:43:52.892Z,101850.27
2022-10-18T23:46:21.173Z,101847.36
2022-10-18T23:48:49.688Z,101845.26
2022-10-18T23:51:18.136Z,101837.09
2022-10-18T23:53:46.382Z,101828.52
2022-10-18T23:56:16.611Z,101824.16
2022-10-18T23:58:45.563Z,101811.10
